createdAt,value
2023-04-13T00:01:13.945Z,6.50
2023-04-13T00:03:41.935Z,6.50
2023-04-13T00:06:11.767Z,6.50
2023-04-13T00:08:38.949Z,6.50
2023-04-13T00:11:07.539Z,6.50
2023-04-13T00:13:41.469Z,6.50
2023-04-13T00:16:10.479Z,6.50
2023-04-13T00:18:37.531Z,6.50
2023-04-13T00:21:04.739Z,6.50
2023-04-13T00:23:32.190Z,6.50
2023-04-13T00:26:01.868Z,6.50
2023-04-13T00:28:30.286Z,6.50
2023-04-13T00:30:57.472Z,6.40
2023-04-13T00:33:24.707Z,6.40
2023-04-13T00:35:52.457Z,6.40
2023-04-13T00:38:19.558Z,6.40
2023-04-13T00:40:46.561Z,6.40
2023-04-13T00:43:13.516Z,6.30
2023-04-13T00:45:41.563Z,6.30
2023-04-13T00:48:11.199Z,6.30
2023-04-13T00:50:39.372Z,6.30
2023-04-13T00:53:10.632Z,6.30
2023-04-13T00:55:42.211Z,6.20
2023-04-13T00:58:09.520Z,6.20
2023-04-13T01:00:39.806Z,6.20
2023-04-13T01:03:07.146Z,6.10
2023-04-13T01:05:57.298Z,6.20
2023-04-13T01:08:39.864Z,6.20
2023-04-13T01:11:39.525Z,6.10
2023-04-13T01:14:44.734Z,6.20
2023-04-13T01:17:28.915Z,6.20
2023-04-13T01:20:12.259Z,6.20
2023-04-13T01:22:45.701Z,6.20
2023-04-13T01:25:38.227Z,6.20
2023-04-13T01:28:11.834Z,6.20
2023-04-13T01:30:40.516Z,6.20
2023-04-13T01:33:08.900Z,6.20
2023-04-13T01:35:36.670Z,6.20
2023-04-13T01:38:04.358Z,6.20
2023-04-13T01:40:32.963Z,6.20
2023-04-13T01:43:00.113Z,6.20
2023-04-13T01:45:29.683Z,6.20
2023-04-13T01:48:13.728Z,6.10
2023-04-13T01:50:48.629Z,6.10
2023-04-13T01:53:19.183Z,6.10
2023-04-13T01:55:49.158Z,6.10
2023-04-13T01:58:18.731Z,6.10
2023-04-13T02:00:46.427Z,6.10
2023-04-13T02:03:15.720Z,6.10
2023-04-13T02:05:42.943Z,6.10
2023-04-13T02:08:09.892Z,6.10
2023-04-13T02:10:40.185Z,6.10
2023-04-13T02:13:09.598Z,6.00
2023-04-13T02:15:37.800Z,5.90
2023-04-13T02:18:05.888Z,5.90
2023-04-13T02:20:43.562Z,5.90
2023-04-13T02:23:18.003Z,5.90
2023-04-13T02:25:47.904Z,5.80
2023-04-13T02:28:16.093Z,5.80
2023-04-13T02:30:43.128Z,5.70
2023-04-13T02:33:10.052Z,5.70
2023-04-13T02:35:39.083Z,5.70
2023-04-13T02:38:10.805Z,5.70
2023-04-13T02:40:38.940Z,5.70
2023-04-13T02:43:05.951Z,5.70
2023-04-13T02:45:33.201Z,5.60
2023-04-13T02:48:00.291Z,5.60
2023-04-13T02:50:28.289Z,5.60
2023-04-13T02:52:55.296Z,5.60
2023-04-13T02:55:22.414Z,5.60
2023-04-13T02:57:49.976Z,5.60
2023-04-13T03:00:17.256Z,5.50
2023-04-13T03:02:44.886Z,5.50
2023-04-13T03:05:13.077Z,5.50
2023-04-13T03:07:40.367Z,5.50
2023-04-13T03:10:09.112Z,5.50
2023-04-13T03:12:36.961Z,5.40
2023-04-13T03:15:07.452Z,5.30
2023-04-13T03:17:34.845Z,5.20
2023-04-13T03:20:02.225Z,5.10
2023-04-13T03:22:30.736Z,5.10
2023-04-13T03:24:57.767Z,5.00
2023-04-13T03:27:24.764Z,5.00
2023-04-13T03:29:51.749Z,5.10
2023-04-13T03:32:19.314Z,5.10
2023-04-13T03:34:46.490Z,5.10
2023-04-13T03:37:13.429Z,5.10
2023-04-13T03:39:40.882Z,5.10
2023-04-13T03:42:07.967Z,5.00
2023-04-13T03:44:35.054Z,5.10
2023-04-13T03:47:02.128Z,4.90
2023-04-13T03:49:30.639Z,4.90
2023-04-13T03:51:59.000Z,4.90
2023-04-13T03:54:26.374Z,4.80
2023-04-13T03:56:53.714Z,4.70
2023-04-13T03:59:20.811Z,4.70
2023-04-13T04:01:47.825Z,4.70
2023-04-13T04:04:15.070Z,4.70
2023-04-13T04:06:42.086Z,4.70
2023-04-13T04:09:10.254Z,4.70
2023-04-13T04:11:37.255Z,4.80
2023-04-13T04:14:04.367Z,4.70
2023-04-13T04:16:31.541Z,4.70
2023-04-13T04:18:58.623Z,4.80
2023-04-13T04:21:33.932Z,4.80
2023-04-13T04:24:01.991Z,4.80
2023-04-13T04:26:30.191Z,4.80
2023-04-13T04:29:02.396Z,4.80
2023-04-13T04:31:37.415Z,4.80
2023-04-13T04:34:04.940Z,4.80
2023-04-13T04:36:31.930Z,4.80
2023-04-13T04:39:02.799Z,4.90
2023-04-13T04:41:31.361Z,4.90
2023-04-13T04:44:02.989Z,4.90
2023-04-13T04:46:30.044Z,5.00
2023-04-13T04:49:00.924Z,5.00
2023-04-13T04:51:29.063Z,5.00
2023-04-13T04:53:58.734Z,5.10
2023-04-13T04:56:26.101Z,5.10
2023-04-13T04:58:53.068Z,5.10
2023-04-13T05:01:23.042Z,5.10
2023-04-13T05:03:50.136Z,5.00
2023-04-13T05:06:17.158Z,5.10
2023-04-13T05:08:44.947Z,5.20
2023-04-13T05:11:12.064Z,5.20
2023-04-13T05:13:39.015Z,5.30
2023-04-13T05:16:06.380Z,5.40
2023-04-13T05:18:44.226Z,5.40
2023-04-13T05:21:11.495Z,5.60
2023-04-13T05:23:38.709Z,5.50
2023-04-13T05:26:06.244Z,5.50
2023-04-13T05:28:34.411Z,5.50
2023-04-13T05:31:04.944Z,5.50
2023-04-13T05:33:31.923Z,5.60
2023-04-13T05:35:59.121Z,5.60
2023-04-13T05:38:26.357Z,5.60
2023-04-13T05:40:54.240Z,5.60
2023-04-13T05:43:23.652Z,5.60
2023-04-13T05:45:51.011Z,5.60
2023-04-13T05:48:18.101Z,5.60
2023-04-13T05:50:45.122Z,5.70
2023-04-13T05:53:12.834Z,5.70
2023-04-13T05:55:42.582Z,5.70
2023-04-13T05:58:11.167Z,5.80
2023-04-13T06:00:38.958Z,5.80
2023-04-13T06:03:07.601Z,5.80
2023-04-13T06:05:36.755Z,5.90
2023-04-13T06:08:04.118Z,6.00
2023-04-13T06:10:31.564Z,6.00
2023-04-13T06:12:58.993Z,6.20
2023-04-13T06:15:26.249Z,6.30
2023-04-13T06:17:53.562Z,6.40
2023-04-13T06:20:21.818Z,6.50
2023-04-13T06:22:49.322Z,6.50
2023-04-13T06:25:16.877Z,6.50
2023-04-13T06:27:44.398Z,6.70
2023-04-13T06:30:12.346Z,6.70
2023-04-13T06:32:39.604Z,6.80
2023-04-13T06:35:07.253Z,7.00
2023-04-13T06:37:38.248Z,7.00
2023-04-13T06:40:16.507Z,7.00
2023-04-13T06:42:43.886Z,7.20
2023-04-13T06:45:11.956Z,7.60
2023-04-13T06:47:43.054Z,9.20
2023-04-13T06:50:14.113Z,10.40
2023-04-13T06:52:44.217Z,10.40
2023-04-13T06:55:11.689Z,10.00
2023-04-13T06:57:38.751Z,9.60
2023-04-13T07:00:15.452Z,9.20
2023-04-13T07:02:53.605Z,8.80
2023-04-13T07:05:20.968Z,8.50
2023-04-13T07:07:47.981Z,8.50
2023-04-13T07:10:15.028Z,8.50
2023-04-13T07:12:42.493Z,8.40
2023-04-13T07:15:09.777Z,8.40
2023-04-13T07:17:37.118Z,8.30
2023-04-13T07:20:05.827Z,8.30
2023-04-13T07:22:33.814Z,8.30
2023-04-13T07:28:36.666Z,8.10
2023-04-13T07:31:05.004Z,8.00
2023-04-13T07:33:32.400Z,7.90
2023-04-13T07:35:59.312Z,7.90
2023-04-13T07:38:26.353Z,7.70
2023-04-13T07:40:53.338Z,7.60
2023-04-13T07:43:20.780Z,7.70
2023-04-13T07:45:47.776Z,7.70
2023-04-13T07:48:14.701Z,7.70
2023-04-13T07:50:43.062Z,7.80
2023-04-13T07:53:10.117Z,7.70
2023-04-13T07:55:37.949Z,7.70
2023-04-13T07:58:04.898Z,7.60
2023-04-13T08:00:31.885Z,7.60
2023-04-13T08:02:59.028Z,7.70
2023-04-13T08:05:26.267Z,7.70
2023-04-13T08:07:53.410Z,7.80
2023-04-13T08:10:20.910Z,7.90
2023-04-13T08:12:47.911Z,8.00
2023-04-13T08:15:14.857Z,8.00
2023-04-13T08:17:42.344Z,8.00
2023-04-13T08:20:09.697Z,7.90
2023-04-13T08:22:36.946Z,7.90
2023-04-13T08:25:05.526Z,7.80
2023-04-13T08:27:32.643Z,7.90
2023-04-13T08:30:02.125Z,8.00
2023-04-13T08:32:29.638Z,8.20
2023-04-13T08:34:56.627Z,8.30
2023-04-13T08:37:24.729Z,8.30
2023-04-13T08:39:56.645Z,8.50
2023-04-13T08:42:26.942Z,8.70
2023-04-13T08:45:01.599Z,8.90
2023-04-13T08:47:29.144Z,9.00
2023-04-13T08:50:01.182Z,9.30
2023-04-13T08:52:28.944Z,9.80
2023-04-13T08:55:01.152Z,10.00
2023-04-13T08:57:29.907Z,10.10
2023-04-13T08:59:58.360Z,9.90
2023-04-13T09:02:32.118Z,10.10
2023-04-13T09:05:05.336Z,10.30
2023-04-13T09:07:34.833Z,10.60
2023-04-13T09:10:02.722Z,10.60
2023-04-13T09:12:33.854Z,10.60
2023-04-13T09:15:03.200Z,10.40
2023-04-13T09:17:32.440Z,10.40
2023-04-13T09:20:15.016Z,10.40
2023-04-13T09:22:42.856Z,10.30
2023-04-13T09:25:23.142Z,10.40
2023-04-13T09:27:53.308Z,10.20
2023-04-13T09:30:27.560Z,10.30
2023-04-13T09:33:08.752Z,10.20
2023-04-13T09:35:36.293Z,9.90
2023-04-13T09:38:07.467Z,9.90
2023-04-13T09:40:38.409Z,9.90
2023-04-13T09:43:08.096Z,9.90
2023-04-13T09:45:36.777Z,9.70
2023-04-13T09:48:05.270Z,9.50
2023-04-13T09:50:34.066Z,9.60
2023-04-13T09:53:10.821Z,9.80
2023-04-13T09:55:39.278Z,9.80
2023-04-13T09:58:13.978Z,9.80
2023-04-13T10:00:46.645Z,10.00
2023-04-13T10:03:15.591Z,10.50
2023-04-13T10:05:55.336Z,10.90
2023-04-13T10:08:37.580Z,11.00
2023-04-13T10:11:12.264Z,11.10
2023-04-13T10:13:56.043Z,11.40
2023-04-13T10:16:36.799Z,11.60
2023-04-13T10:19:24.093Z,11.30
2023-04-13T10:21:53.702Z,11.00
2023-04-13T10:24:24.359Z,11.20
2023-04-13T10:26:55.626Z,11.40
2023-04-13T10:29:30.115Z,11.50
2023-04-13T10:32:03.636Z,12.10
2023-04-13T10:34:34.540Z,12.40
2023-04-13T10:37:06.746Z,12.90
2023-04-13T10:39:36.307Z,13.60
2023-04-13T10:42:10.900Z,14.10
2023-04-13T10:44:46.261Z,13.60
2023-04-13T10:47:15.410Z,13.40
2023-04-13T10:49:44.644Z,12.70
2023-04-13T10:52:12.582Z,12.50
2023-04-13T10:54:41.524Z,12.30
2023-04-13T10:57:11.637Z,12.40
2023-04-13T10:59:59.345Z,12.30
2023-04-13T11:02:32.447Z,12.30
2023-04-13T11:05:01.462Z,12.60
2023-04-13T11:07:29.888Z,12.40
2023-04-13T11:10:03.966Z,12.60
2023-04-13T11:12:33.347Z,12.50
2023-04-13T11:15:01.091Z,12.40
2023-04-13T11:17:28.544Z,12.20
2023-04-13T11:19:57.266Z,12.00
2023-04-13T11:22:28.175Z,11.70
2023-04-13T11:25:09.522Z,11.30
2023-04-13T11:27:38.057Z,11.00
2023-04-13T11:30:07.795Z,10.70
2023-04-13T11:32:36.583Z,10.60
2023-04-13T11:35:11.336Z,10.60
2023-04-13T11:37:50.100Z,10.70
2023-04-13T11:40:21.622Z,10.70
2023-04-13T11:42:54.052Z,10.70
2023-04-13T11:45:25.713Z,10.70
2023-04-13T11:47:54.195Z,10.70
2023-04-13T11:50:22.756Z,10.90
2023-04-13T11:52:56.660Z,11.10
2023-04-13T11:55:25.299Z,11.30
2023-04-13T11:57:54.013Z,11.40
2023-04-13T12:00:26.735Z,11.40
2023-04-13T12:05:28.611Z,11.40
2023-04-13T12:07:57.534Z,11.60
2023-04-13T12:10:36.153Z,11.90
2023-04-13T12:16:04.981Z,13.20
2023-04-13T12:18:47.431Z,13.70
2023-04-13T12:21:17.455Z,14.10
2023-04-13T12:23:58.844Z,14.50
2023-04-13T12:29:08.966Z,14.80
2023-04-13T12:31:38.404Z,15.10
2023-04-13T12:34:08.119Z,15.30
2023-04-13T12:36:36.683Z,15.10
2023-04-13T12:39:05.067Z,14.50
2023-04-13T12:41:33.006Z,14.00
2023-04-13T12:44:00.160Z,13.70
2023-04-13T12:46:27.227Z,13.30
2023-04-13T12:48:55.237Z,12.80
2023-04-13T12:51:22.577Z,12.40
2023-04-13T12:53:49.883Z,12.00
2023-04-13T12:56:17.132Z,11.90
2023-04-13T12:58:44.423Z,11.80
2023-04-13T13:01:11.797Z,11.70
2023-04-13T13:03:38.956Z,11.60
2023-04-13T13:06:07.388Z,11.60
2023-04-13T13:08:36.931Z,11.80
2023-04-13T13:11:08.480Z,12.00
2023-04-13T13:13:35.940Z,12.30
2023-04-13T13:16:03.849Z,12.40
2023-04-13T13:18:46.392Z,12.50
2023-04-13T13:21:17.771Z,12.70
2023-04-13T13:23:46.051Z,12.80
2023-04-13T13:26:23.975Z,12.50
2023-04-13T13:28:52.516Z,12.30
2023-04-13T13:31:20.024Z,12.50
2023-04-13T13:33:47.557Z,12.50
2023-04-13T13:36:15.673Z,12.60
2023-04-13T13:38:43.712Z,12.60
2023-04-13T13:41:11.683Z,12.50
2023-04-13T13:43:39.535Z,12.40
2023-04-13T13:46:07.250Z,12.20
2023-04-13T13:48:34.712Z,12.00
2023-04-13T13:51:03.336Z,11.90
2023-04-13T13:53:31.980Z,11.80
2023-04-13T13:55:59.338Z,11.90
2023-04-13T13:58:26.674Z,11.70
2023-04-13T14:00:56.132Z,11.60
2023-04-13T14:03:24.036Z,11.50
2023-04-13T14:05:51.330Z,11.60
2023-04-13T14:08:18.621Z,11.60
2023-04-13T14:10:49.667Z,11.70
2023-04-13T14:13:17.439Z,11.80
2023-04-13T14:15:44.741Z,11.90
2023-04-13T14:18:12.340Z,12.00
2023-04-13T14:20:40.399Z,12.10
2023-04-13T14:23:09.669Z,12.20
2023-04-13T14:25:38.222Z,12.20
2023-04-13T14:28:06.486Z,12.30
2023-04-13T14:30:33.957Z,12.40
2023-04-13T14:33:01.586Z,12.40
2023-04-13T14:35:29.610Z,12.50
2023-04-13T14:37:57.352Z,12.60
2023-04-13T14:40:24.661Z,12.60
2023-04-13T14:42:55.237Z,12.60
2023-04-13T14:45:22.331Z,12.60
2023-04-13T14:47:50.237Z,12.60
2023-04-13T14:50:18.302Z,12.60
2023-04-13T14:52:46.506Z,12.50
2023-04-13T14:55:14.762Z,12.40
2023-04-13T14:57:42.216Z,12.20
2023-04-13T15:00:32.425Z,12.00
2023-04-13T15:02:59.971Z,11.90
2023-04-13T15:05:28.304Z,11.90
2023-04-13T15:07:55.814Z,11.80
2023-04-13T15:10:22.836Z,11.80
2023-04-13T15:12:49.773Z,11.70
2023-04-13T15:15:16.914Z,11.80
2023-04-13T15:17:44.151Z,11.70
2023-04-13T15:20:12.196Z,11.60
2023-04-13T15:22:39.178Z,11.50
2023-04-13T15:25:06.838Z,11.50
2023-04-13T15:27:34.777Z,11.40
2023-04-13T15:30:03.756Z,11.40
2023-04-13T15:32:34.073Z,11.30
2023-04-13T15:35:01.183Z,11.20
2023-04-13T15:37:28.643Z,11.20
2023-04-13T15:39:58.302Z,11.20
2023-04-13T15:42:27.569Z,11.20
2023-04-13T15:44:55.453Z,11.10
2023-04-13T15:47:22.995Z,11.10
2023-04-13T15:49:50.020Z,11.20
2023-04-13T15:52:16.947Z,11.30
2023-04-13T15:54:44.026Z,11.40
2023-04-13T15:57:11.076Z,11.40
2023-04-13T15:59:38.106Z,11.40
2023-04-13T16:02:05.163Z,11.20
2023-04-13T16:04:32.835Z,11.20
2023-04-13T16:07:12.856Z,11.20
2023-04-13T16:09:56.777Z,11.20
2023-04-13T16:12:31.525Z,11.10
2023-04-13T16:15:01.648Z,11.10
2023-04-13T16:17:33.395Z,11.10
2023-04-13T16:20:14.541Z,11.10
2023-04-13T16:22:43.244Z,11.10
2023-04-13T16:25:11.538Z,11.00
2023-04-13T16:27:38.825Z,10.90
2023-04-13T16:30:08.297Z,10.80
2023-04-13T16:32:35.374Z,10.70
2023-04-13T16:35:02.530Z,10.70
2023-04-13T16:37:29.553Z,10.60
2023-04-13T16:39:56.527Z,10.50
2023-04-13T16:42:23.463Z,10.30
2023-04-13T16:44:50.489Z,10.30
2023-04-13T16:47:18.116Z,10.20
2023-04-13T16:49:45.127Z,10.20
2023-04-13T16:52:12.666Z,10.20
2023-04-13T16:54:43.636Z,10.20
2023-04-13T16:57:11.766Z,10.20
2023-04-13T16:59:39.218Z,10.30
2023-04-13T17:02:11.303Z,10.40
2023-04-13T17:04:42.491Z,10.50
2023-04-13T17:07:09.494Z,10.40
2023-04-13T17:09:36.738Z,10.30
2023-04-13T17:12:03.786Z,10.20
2023-04-13T17:14:31.598Z,10.20
2023-04-13T17:16:58.637Z,10.20
2023-04-13T17:19:25.881Z,10.30
2023-04-13T17:21:52.828Z,10.30
2023-04-13T17:24:19.772Z,10.30
2023-04-13T17:26:46.828Z,10.20
2023-04-13T17:29:13.830Z,10.20
2023-04-13T17:31:40.843Z,10.20
2023-04-13T17:34:07.905Z,10.10
2023-04-13T17:36:34.952Z,9.90
2023-04-13T17:39:02.088Z,9.70
2023-04-13T17:41:29.274Z,9.60
2023-04-13T17:43:56.237Z,9.50
2023-04-13T17:46:23.221Z,9.30
2023-04-13T17:48:50.287Z,9.10
2023-04-13T17:51:17.240Z,9.00
2023-04-13T17:53:44.198Z,8.90
2023-04-13T17:56:17.927Z,8.80
2023-04-13T17:58:45.187Z,8.70
2023-04-13T18:01:12.369Z,8.60
2023-04-13T18:03:42.288Z,8.50
2023-04-13T18:06:39.468Z,8.40
2023-04-13T18:09:06.788Z,8.20
2023-04-13T18:11:33.869Z,8.10
2023-04-13T18:14:02.828Z,8.00
2023-04-13T18:16:31.886Z,8.00
2023-04-13T18:19:04.179Z,7.80
2023-04-13T18:21:32.384Z,7.70
2023-04-13T18:24:01.778Z,7.50
2023-04-13T18:26:29.333Z,7.50
2023-04-13T18:28:56.288Z,7.40
2023-04-13T18:31:23.448Z,7.30
2023-04-13T18:33:50.618Z,7.20
2023-04-13T18:36:18.511Z,7.10
2023-04-13T18:38:46.313Z,7.10
2023-04-13T18:41:13.765Z,7.00
2023-04-13T18:43:40.948Z,6.90
2023-04-13T18:46:08.332Z,6.90
2023-04-13T18:48:36.085Z,6.90
2023-04-13T18:51:05.233Z,6.80
2023-04-13T18:53:32.237Z,6.80
2023-04-13T18:56:03.454Z,6.70
2023-04-13T18:58:30.417Z,6.70
2023-04-13T19:00:57.369Z,6.60
2023-04-13T19:03:24.574Z,6.50
2023-04-13T19:05:52.078Z,6.50
2023-04-13T19:08:19.072Z,6.50
2023-04-13T19:10:46.273Z,6.50
2023-04-13T19:13:15.173Z,6.40
2023-04-13T19:15:48.200Z,6.30
2023-04-13T19:18:15.104Z,6.20
2023-04-13T19:20:42.101Z,6.20
2023-04-13T19:23:09.126Z,6.20
2023-04-13T19:25:36.445Z,6.10
2023-04-13T19:28:05.026Z,6.10
2023-04-13T19:30:32.308Z,6.10
2023-04-13T19:33:00.792Z,6.20
2023-04-13T19:35:29.441Z,6.20
2023-04-13T19:37:56.394Z,6.10
2023-04-13T19:40:24.229Z,6.10
2023-04-13T19:42:51.190Z,6.10
2023-04-13T19:45:18.206Z,6.10
2023-04-13T19:47:45.833Z,6.00
2023-04-13T19:50:14.991Z,6.00
2023-04-13T19:52:42.668Z,5.90
2023-04-13T19:55:11.105Z,5.90
2023-04-13T19:57:42.188Z,5.80
2023-04-13T20:00:19.285Z,5.80
2023-04-13T20:02:49.971Z,5.70
2023-04-13T20:05:18.204Z,5.60
2023-04-13T20:07:45.160Z,5.60
2023-04-13T20:10:12.588Z,5.50
2023-04-13T20:12:39.609Z,5.50
2023-04-13T20:15:10.132Z,5.60
2023-04-13T20:17:37.182Z,5.50
2023-04-13T20:20:06.509Z,5.50
2023-04-13T20:22:33.482Z,5.40
2023-04-13T20:25:05.095Z,5.30
2023-04-13T20:27:37.711Z,5.20
2023-04-13T20:30:08.032Z,5.20
2023-04-13T20:32:35.281Z,5.20
2023-04-13T20:35:02.927Z,5.10
2023-04-13T20:37:29.896Z,5.00
2023-04-13T20:39:58.952Z,4.90
2023-04-13T20:42:26.026Z,4.90
2023-04-13T20:44:57.679Z,4.80
2023-04-13T20:47:29.171Z,4.80
2023-04-13T20:49:57.656Z,4.80
2023-04-13T20:52:26.031Z,4.80
2023-04-13T20:54:54.723Z,4.70
2023-04-13T20:57:22.070Z,4.70
2023-04-13T20:59:49.116Z,4.80
2023-04-13T21:02:17.457Z,4.80
2023-04-13T21:04:44.485Z,4.90
2023-04-13T21:07:12.981Z,4.90
2023-04-13T21:09:40.021Z,4.80
2023-04-13T21:12:07.184Z,4.80
2023-04-13T21:14:34.107Z,4.80
2023-04-13T21:17:01.071Z,4.70
2023-04-13T21:19:30.141Z,4.60
2023-04-13T21:21:57.626Z,4.60
2023-04-13T21:24:24.743Z,4.50
2023-04-13T21:26:51.756Z,4.50
2023-04-13T21:29:20.186Z,4.50
2023-04-13T21:31:48.165Z,4.50
2023-04-13T21:34:16.844Z,4.50
2023-04-13T21:39:14.607Z,4.40
2023-04-13T21:41:42.672Z,4.30
2023-04-13T21:44:22.651Z,4.30
2023-04-13T21:46:56.724Z,4.30
2023-04-13T21:49:23.701Z,4.20
2023-04-13T21:51:50.736Z,4.20
2023-04-13T21:54:17.743Z,4.30
2023-04-13T21:56:44.678Z,4.30
2023-04-13T21:59:17.558Z,4.20
2023-04-13T22:01:45.875Z,4.30
2023-04-13T22:04:13.213Z,4.30
2023-04-13T22:06:40.510Z,4.20
2023-04-13T22:09:07.523Z,4.30
2023-04-13T22:11:34.454Z,4.30
2023-04-13T22:14:01.789Z,4.20
2023-04-13T22:16:28.745Z,4.20
2023-04-13T22:18:58.011Z,4.20
2023-04-13T22:21:25.052Z,4.10
2023-04-13T22:23:53.079Z,4.10
2023-04-13T22:26:20.015Z,4.10
2023-04-13T22:28:47.059Z,4.10
2023-04-13T22:31:13.995Z,4.10
2023-04-13T22:33:41.097Z,4.10
2023-04-13T22:36:19.913Z,4.20
2023-04-13T22:38:47.673Z,4.30
2023-04-13T22:41:14.628Z,4.30
2023-04-13T22:43:41.681Z,4.30
2023-04-13T22:46:08.608Z,4.20
2023-04-13T22:48:35.744Z,4.20
2023-04-13T22:51:03.792Z,4.10
2023-04-13T22:53:31.197Z,4.00
2023-04-13T22:55:59.334Z,4.00
2023-04-13T22:58:26.662Z,4.00
2023-04-13T23:00:53.678Z,3.90
2023-04-13T23:03:23.031Z,3.90
2023-04-13T23:05:50.193Z,3.90
2023-04-13T23:08:17.199Z,3.80
2023-04-13T23:10:45.148Z,3.80
2023-04-13T23:13:12.661Z,3.70
2023-04-13T23:15:39.700Z,3.70
2023-04-13T23:18:06.892Z,3.70
2023-04-13T23:20:34.015Z,3.60
2023-04-13T23:23:01.306Z,3.50
2023-04-13T23:25:28.302Z,3.50
2023-04-13T23:27:55.349Z,3.50
2023-04-13T23:30:22.293Z,3.50
2023-04-13T23:32:49.315Z,3.40
2023-04-13T23:35:16.449Z,3.50
2023-04-13T23:37:45.398Z,3.50
2023-04-13T23:40:12.793Z,3.50
2023-04-13T23:42:39.809Z,3.50
2023-04-13T23:45:07.778Z,3.50
2023-04-13T23:47:34.838Z,3.50
2023-04-13T23:50:01.902Z,3.40
2023-04-13T23:52:29.104Z,3.40
2023-04-13T23:54:56.320Z,3.40
2023-04-13T23:57:24.294Z,3.40
2023-04-13T23:59:57.435Z,3.50
